Time;durP1;ratioP1;P1;durP2;ratioP2;P2;SDS_P1;SDS_P2;PMS_P1;PMS_P2;Temp;Humidity;BMP_temperature;BMP_pressure;BME280_temperature;BME280_humidity;BME280_pressure;Samples;Min_cycle;Max_cycle;Signal;HPM_P1;HPM_P2
2022/12/17 13:08:14;;;;;;;67.07;27.98;;;;;;;-144.47;91.54;60184.97;4949915;28;20039;-67
2022/12/17 13:10:40;;;;;;;81.22;28.25;;;;;;;-144.47;91.69;60202.88;4947783;28;20039;-69
2022/12/17 13:13:19;;;;;;;81.88;29.13;;;;;;;-144.47;91.13;60204.88;4950073;28;20086;-70
2022/12/17 13:15:58;;;;;;;85.78;30.95;;;;;;;-144.47;91.99;60218.81;4955565;28;20023;-68
2022/12/17 13:18:35;;;;;;;82.05;28.50;;;;;;;-144.47;92.68;60222.78;4949803;28;20519;-69
2022/12/17 13:21:23;;;;;;;75.65;26.63;;;;;;;-144.47;92.86;60268.56;4967917;28;20027;-70
2022/12/17 13:23:48;;;;;;;73.53;28.63;;;;;;;-144.47;93.02;60254.63;4953470;28;20027;-66
2022/12/17 13:26:19;;;;;;;85.45;29.80;;;;;;;-144.47;92.91;60298.41;4961652;28;20031;-69
2022/12/17 13:29:10;;;;;;;96.30;33.03;;;;;;;-144.47;92.44;60356.16;4951853;28;20038;-67
2022/12/17 13:32:02;;;;;;;91.75;31.73;;;;;;;-144.47;92.58;60298.41;4947502;28;20035;-70
2022/12/17 13:34:46;;;;;;;83.13;29.50;;;;;;;-144.47;92.91;60322.31;4938780;28;20027;-66
2022/12/17 13:37:31;;;;;;;91.32;32.28;;;;;;;-144.47;92.71;60328.28;4950240;28;20089;-71
2022/12/17 13:40:13;;;;;;;100.18;31.27;;;;;;;-144.47;93.25;60322.31;4948393;28;20624;-69
2022/12/17 13:42:39;;;;;;;97.55;30.42;;;;;;;-144.47;93.14;60292.44;4952141;28;20031;-70
2022/12/17 13:45:05;;;;;;;86.60;30.42;;;;;;;-144.47;93.23;60372.06;4951440;28;20047;-69
2022/12/17 13:47:33;;;;;;;90.25;32.70;;;;;;;-144.47;92.54;60370.09;4949437;28;20113;-71
2022/12/17 13:50:02;;;;;;;95.10;32.90;;;;;;;-144.47;92.91;60364.09;4949477;28;20027;-68
2022/12/17 13:52:29;;;;;;;82.93;30.67;;;;;;;-144.47;93.00;60364.09;4946098;28;20039;-68
2022/12/17 13:55:07;;;;;;;95.75;31.23;;;;;;;-144.47;92.51;60388.00;4951472;28;20085;-67
2022/12/17 13:57:36;;;;;;;83.35;30.27;;;;;;;-144.47;92.58;60399.94;4939550;28;20110;-68
2022/12/17 14:00:03;;;;;;;73.63;26.77;;;;;;;-144.47;92.22;60388.00;4950394;28;20173;-69
2022/12/17 14:02:36;;;;;;;87.85;29.83;;;;;;;-144.47;92.61;60473.59;4947700;28;20019;-68
2022/12/17 14:05:06;;;;;;;108.70;30.35;;;;;;;-144.47;92.78;60423.81;4947456;28;20074;-67
2022/12/17 14:07:33;;;;;;;80.82;29.83;;;;;;;-144.47;92.68;60419.84;4942052;28;20097;-68
2022/12/17 14:10:01;;;;;;;75.20;29.10;;;;;;;-144.47;92.44;60427.81;4964273;28;20027;-66
2022/12/17 14:12:28;;;;;;;70.68;28.70;;;;;;;-144.47;92.27;60455.69;4949003;28;20054;-67
2022/12/17 14:15:27;;;;;;;69.18;26.85;;;;;;;-144.47;92.05;60463.63;4951795;28;20071;-68
2022/12/17 14:17:53;;;;;;;68.72;25.88;;;;;;;-144.47;91.92;60525.34;4946809;28;20042;-67
2022/12/17 14:20:25;;;;;;;77.25;28.73;;;;;;;-144.47;90.91;60499.47;4953674;28;20437;-68
2022/12/17 14:23:07;;;;;;;65.75;29.00;;;;;;;-144.47;91.20;60599.00;4965190;28;20045;-67
2022/12/17 14:25:36;;;;;;;72.47;27.00;;;;;;;-144.47;91.58;60585.06;4949849;28;20104;-67
2022/12/17 14:28:22;;;;;;;75.75;27.90;;;;;;;-144.47;91.26;60644.78;4964835;28;20039;-68
2022/12/17 14:30:49;;;;;;;72.57;26.90;;;;;;;-144.47;91.50;60712.47;4944398;28;20502;-67
2022/12/17 14:33:32;;;;;;;72.28;26.55;;;;;;;-144.47;91.50;60694.56;4955784;28;20172;-68
2022/12/17 14:36:00;;;;;;;72.78;28.83;;;;;;;-144.47;91.51;60782.16;4918900;28;1085870;-68
2022/12/17 14:38:27;;;;;;;74.53;28.83;;;;;;;-144.47;91.20;60827.94;4948841;28;20031;-68
2022/12/17 14:40:53;;;;;;;179.85;51.40;;;;;;;-144.47;91.59;60827.94;4956869;28;20043;-66
2022/12/17 14:43:27;;;;;;;116.82;43.80;;;;;;;-144.47;91.17;60879.69;4949560;28;20050;-67
2022/12/17 14:49:00;;;;;;;;;;;;;;;-144.47;91.51;61025.03;4941188;28;20659;-67
2022/12/17 14:51:34;;;;;;;108.28;36.70;;;;;;;-144.47;91.59;61074.81;4935200;28;19973;-67
2022/12/17 14:54:27;;;;;;;70.28;27.80;;;;;;;-144.47;91.52;61182.31;4944455;28;20114;-67
2022/12/17 14:56:54;;;;;;;77.45;28.38;;;;;;;-144.47;91.79;61222.16;4943984;28;20035;-67
2022/12/17 14:59:26;;;;;;;70.07;25.23;;;;;;;-144.47;92.03;61341.63;4947708;28;20086;-67
2022/12/17 15:01:53;;;;;;;88.22;32.83;;;;;;;-144.47;92.32;61469.03;4947481;28;20039;-67
2022/12/17 15:04:20;;;;;;;80.15;30.17;;;;;;;-144.47;92.39;61568.59;4946948;28;20332;-69
2022/12/17 15:06:45;;;;;;;71.63;25.88;;;;;;;-144.47;92.41;61616.41;4944595;28;20038;-68
2022/12/17 15:09:12;;;;;;;74.18;28.40;;;;;;;-144.47;92.24;61682.09;4946737;28;20035;-68
2022/12/17 15:11:38;;;;;;;85.45;31.17;;;;;;;-144.47;92.12;61761.75;4959878;28;20086;-67
2022/12/17 15:14:03;;;;;;;63.47;24.67;;;;;;;-144.47;92.34;61855.34;4947147;28;20031;-67
2022/12/17 15:16:29;;;;;;;75.70;25.70;;;;;;;-144.47;92.29;61960.91;4947148;28;20565;-67
2022/12/17 15:18:54;;;;;;;76.40;27.00;;;;;;;-144.47;92.46;62020.66;4944328;28;20023;-65
2022/12/17 15:21:20;;;;;;;69.28;26.20;;;;;;;-144.47;92.73;62130.19;4946514;28;20035;-68
2022/12/17 15:23:46;;;;;;;73.68;28.58;;;;;;;-144.47;92.94;62267.59;4945652;28;20059;-68
2022/12/17 15:26:14;;;;;;;66.63;24.67;;;;;;;-144.47;92.91;62387.09;4961963;28;20023;-70
2022/12/17 15:28:40;;;;;;;66.82;25.05;;;;;;;-144.47;92.49;62452.84;4946432;28;20034;-68
2022/12/17 15:31:05;;;;;;;64.30;24.10;;;;;;;-144.47;92.74;62548.44;4946059;28;20600;-67
2022/12/17 15:33:30;;;;;;;76.25;24.98;;;;;;;-144.47;92.46;62612.19;4947347;28;20038;-68
2022/12/17 15:35:57;;;;;;;67.13;24.25;;;;;;;-144.47;92.41;62660.00;4949924;28;20891;-66
2022/12/17 15:38:23;;;;;;;72.03;24.33;;;;;;;-144.47;92.39;62749.63;4942733;28;20043;-65
2022/12/17 15:40:51;;;;;;;67.45;24.58;;;;;;;-144.47;92.34;62811.38;4945476;28;20027;-68
2022/12/17 15:43:16;;;;;;;63.60;24.65;;;;;;;-144.47;92.67;62833.28;4946694;28;20576;-66
2022/12/17 15:45:50;;;;;;;62.85;24.55;;;;;;;-144.47;92.71;62893.06;4947705;28;20035;-65
2022/12/17 15:48:18;;;;;;;68.60;26.05;;;;;;;-144.47;93.11;62952.81;4944525;28;20046;-66
2022/12/17 15:50:43;;;;;;;81.77;28.47;;;;;;;-144.47;93.46;62958.78;4946174;28;20095;-66
2022/12/17 15:53:09;;;;;;;68.57;25.67;;;;;;;-144.47;93.31;63010.59;4947911;28;20039;-68
2022/12/17 15:55:36;;;;;;;85.97;27.60;;;;;;;-144.47;93.63;63016.56;4949176;28;20031;-67
2022/12/17 15:58:01;;;;;;;79.70;28.63;;;;;;;-144.47;93.59;63010.59;4952535;28;20547;-67
2022/12/17 16:00:27;;;;;;;82.55;28.48;;;;;;;-144.47;93.79;63056.41;4956560;28;20038;-67
2022/12/17 16:02:52;;;;;;;78.57;29.52;;;;;;;-144.47;93.74;63064.38;4952212;28;20323;-68
2022/12/17 16:05:19;;;;;;;80.15;29.00;;;;;;;-144.47;94.04;63116.16;4952723;28;20544;-67
2022/12/17 16:07:45;;;;;;;73.53;29.48;;;;;;;-144.47;94.04;63112.19;4954142;28;20501;-68
2022/12/17 16:10:12;;;;;;;81.95;30.40;;;;;;;-144.47;94.17;63132.09;4951981;28;20055;-68
2022/12/17 16:12:38;;;;;;;79.80;29.25;;;;;;;-144.47;94.35;63156.00;4954637;28;20039;-68
2022/12/17 16:15:04;;;;;;;78.85;28.15;;;;;;;-144.47;94.83;63215.78;4954085;28;20031;-66
2022/12/17 16:17:30;;;;;;;80.43;28.58;;;;;;;-144.47;94.54;63221.75;4946276;28;20196;-68
2022/12/17 16:19:56;;;;;;;78.03;31.83;;;;;;;-144.47;94.87;63247.66;4953615;28;20552;-67
2022/12/17 16:22:21;;;;;;;79.38;28.52;;;;;;;-144.47;95.14;63315.38;4963135;28;20034;-67
2022/12/17 16:24:47;;;;;;;80.82;29.33;;;;;;;-144.47;95.52;63345.28;4954492;28;20035;-67
2022/12/17 16:27:13;;;;;;;79.43;26.80;;;;;;;-144.47;96.08;63383.13;4955706;28;20134;-68
2022/12/17 16:29:39;;;;;;;69.45;26.80;;;;;;;-144.47;96.74;63474.78;4970118;28;20031;-67
2022/12/17 16:32:04;;;;;;;78.50;27.95;;;;;;;-144.47;96.83;63438.91;4969238;28;20034;-67
2022/12/17 16:34:29;;;;;;;72.13;24.90;;;;;;;-144.47;96.90;63466.81;4971940;28;20046;-67
2022/12/17 16:36:55;;;;;;;77.25;28.05;;;;;;;-144.47;97.24;63462.81;4957973;28;20027;-65
2022/12/17 16:39:20;;;;;;;99.72;32.67;;;;;;;-144.47;97.84;63492.69;4953003;28;20041;-67
2022/12/17 16:41:46;;;;;;;79.55;30.13;;;;;;;-144.47;97.81;63538.53;4954279;28;20027;-65
2022/12/17 16:44:12;;;;;;;81.68;30.95;;;;;;;-144.47;97.81;63496.69;4954075;28;20101;-69
2022/12/17 16:46:39;;;;;;;98.55;32.08;;;;;;;-144.47;97.96;63544.50;4953600;28;20038;-67
2022/12/17 16:49:17;;;;;;;101.85;32.38;;;;;;;-144.47;97.53;63564.44;4949615;28;20086;-64
2022/12/17 16:51:45;;;;;;;84.07;29.67;;;;;;;-144.47;97.57;63600.28;4953045;28;20034;-67
2022/12/17 16:54:13;;;;;;;87.22;35.05;;;;;;;-144.47;97.54;63638.16;4956288;28;20613;-67
2022/12/17 16:56:39;;;;;;;90.60;33.35;;;;;;;-144.47;98.17;63676.00;4965290;28;20031;-67
2022/12/17 16:59:07;;;;;;;92.95;31.85;;;;;;;-144.47;98.39;63713.88;4960030;28;20027;-65
2022/12/17 17:01:33;;;;;;;91.60;31.80;;;;;;;-144.47;98.60;63747.75;4961044;28;20026;-68
2022/12/17 17:03:58;;;;;;;96.80;32.35;;;;;;;-144.47;98.74;63765.66;4970656;28;20019;-66
2022/12/17 17:06:24;;;;;;;110.10;35.28;;;;;;;-144.47;98.78;63785.59;4956980;28;20031;-67
2022/12/17 17:08:50;;;;;;;107.63;37.35;;;;;;;-144.47;98.88;63817.47;4952403;28;20032;-67
2022/12/17 17:11:18;;;;;;;135.23;48.33;;;;;;;-144.47;98.89;63837.41;4974011;28;20389;-67
2022/12/17 17:13:43;;;;;;;123.97;43.33;;;;;;;-144.47;99.11;63873.28;4958664;28;20682;-67
2022/12/17 17:16:09;;;;;;;109.53;35.30;;;;;;;-144.47;99.02;63891.19;4951734;28;20119;-67
2022/12/17 17:18:36;;;;;;;110.10;35.28;;;;;;;-144.47;98.95;63881.25;4949802;28;20027;-65
2022/12/17 17:21:38;;;;;;;119.65;37.00;;;;;;;-144.47;98.85;63911.13;4951892;28;20055;-68
2022/12/17 17:24:15;;;;;;;103.57;35.78;;;;;;;-144.47;99.04;64010.75;4954721;28;20062;-67
2022/12/17 17:26:42;;;;;;;112.60;38.70;;;;;;;-144.47;99.15;64016.75;4947751;28;20035;-66
2022/12/17 17:29:07;;;;;;;133.60;42.28;;;;;;;-144.47;99.33;64028.69;4943804;28;20027;-68
2022/12/17 17:31:34;;;;;;;129.93;42.00;;;;;;;-144.47;99.16;64044.63;4942791;28;20032;-65
2022/12/17 17:34:08;;;;;;;121.97;40.80;;;;;;;-144.47;99.35;64082.50;4958110;28;20042;-66
2022/12/17 17:36:34;;;;;;;130.52;39.08;;;;;;;-144.47;99.20;64110.41;4948417;28;20109;-66
2022/12/17 17:39:01;;;;;;;111.88;33.97;;;;;;;-144.47;99.12;64102.44;4951921;28;20482;-67
2022/12/17 17:41:28;;;;;;;111.15;38.25;;;;;;;-144.47;99.19;64116.38;4965894;28;20023;-66
2022/12/17 17:44:05;;;;;;;115.55;37.53;;;;;;;-144.47;99.07;64096.44;4954079;28;20035;-66
2022/12/17 17:46:31;;;;;;;109.57;37.78;;;;;;;-144.47;99.10;64158.22;4949112;28;20117;-66
2022/12/17 17:48:58;;;;;;;100.75;35.50;;;;;;;-144.47;99.16;64194.09;4974496;28;20046;-67
2022/12/17 17:51:27;;;;;;;126.00;38.45;;;;;;;-144.47;99.52;64186.13;4953318;28;20051;-67
2022/12/17 17:53:53;;;;;;;110.85;39.80;;;;;;;-144.47;99.65;64231.97;4952486;28;20441;-67
2022/12/17 17:56:24;;;;;;;99.57;35.90;;;;;;;-144.47;99.81;64275.81;4952706;28;20497;-66
2022/12/17 17:58:55;;;;;;;107.07;34.40;;;;;;;-144.47;99.77;64291.75;4956610;28;20042;-68
2022/12/17 18:01:24;;;;;;;113.80;38.63;;;;;;;-144.47;99.76;64327.63;4954351;28;20035;-68
2022/12/17 18:03:51;;;;;;;108.68;38.00;;;;;;;-144.47;99.50;64293.75;4953273;28;20178;-67
2022/12/17 18:06:16;;;;;;;113.32;38.55;;;;;;;-144.47;99.44;64315.66;4951121;28;20023;-65
2022/12/17 18:08:42;;;;;;;116.32;35.58;;;;;;;-144.47;99.63;64339.56;4966955;28;20506;-66
2022/12/17 18:11:15;;;;;;;116.18;36.00;;;;;;;-144.47;99.43;64363.50;4956355;28;20050;-66
2022/12/17 18:13:56;;;;;;;120.13;37.58;;;;;;;-144.47;99.69;64403.34;4951665;28;20525;-68
2022/12/17 18:16:21;;;;;;;122.03;41.80;;;;;;;-144.47;99.64;64471.09;4952510;28;20058;-68
2022/12/17 18:18:47;;;;;;;100.50;37.58;;;;;;;-144.47;99.80;64447.19;4958030;28;20047;-68
2022/12/17 18:21:15;;;;;;;108.18;35.05;;;;;;;-144.47;99.92;64483.06;4961327;28;20035;-67
2022/12/17 18:23:41;;;;;;;99.50;32.77;;;;;;;-144.47;99.72;64481.06;4953072;28;20634;-68
2022/12/17 18:26:13;;;;;;;115.57;34.53;;;;;;;-144.47;99.45;64506.97;4960760;28;20030;-66
2022/12/17 18:28:40;;;;;;;101.30;34.28;;;;;;;-144.47;99.41;64491.03;4964423;28;20141;-68
2022/12/17 18:31:08;;;;;;;102.40;35.33;;;;;;;-144.47;99.17;64518.94;4970181;28;20596;-68
2022/12/17 18:33:35;;;;;;;85.97;32.95;;;;;;;-144.47;99.45;64548.84;4957170;28;20041;-67
2022/12/17 18:36:00;;;;;;;105.43;37.40;;;;;;;-144.47;99.48;64584.72;4957584;28;20102;-66
2022/12/17 18:38:26;;;;;;;94.05;33.55;;;;;;;-144.47;99.39;64550.81;4950443;28;20379;-66
2022/12/17 18:40:51;;;;;;;97.72;32.85;;;;;;;-144.47;99.59;64608.63;4970591;28;20022;-68
2022/12/17 18:43:22;;;;;;;105.60;33.97;;;;;;;-144.47;99.81;64610.63;4957169;28;20493;-66
2022/12/17 18:45:51;;;;;;;98.22;30.75;;;;;;;-144.47;99.55;64628.56;4966647;28;20023;-68
2022/12/17 18:48:18;;;;;;;;;;;;;;;-144.47;99.05;64626.56;4950703;28;20029;-66
2022/12/17 18:50:43;;;;;;;83.28;28.65;;;;;;;-144.47;99.21;64658.44;4952710;28;19917;-68
2022/12/17 18:53:08;;;;;;;80.20;28.52;;;;;;;-144.47;99.40;64658.44;4951233;28;20027;-68
2022/12/17 18:55:39;;;;;;;83.85;30.30;;;;;;;-144.47;99.57;64708.28;4952045;28;20106;-66
2022/12/17 18:58:08;;;;;;;74.22;29.80;;;;;;;-144.47;99.59;64762.09;4965267;28;20047;-65
2022/12/17 19:00:36;;;;;;;101.70;31.35;;;;;;;-144.47;99.19;64752.13;4966595;28;20117;-65
2022/12/17 19:03:03;;;;;;;110.00;33.75;;;;;;;-144.47;99.33;64764.09;4950069;28;20043;-65
2022/12/17 19:05:28;;;;;;;92.70;31.88;;;;;;;-144.47;99.23;64780.03;4951866;28;20023;-67
2022/12/17 19:07:54;;;;;;;78.55;29.90;;;;;;;-144.47;99.02;64778.03;4950211;28;20600;-64
2022/12/17 19:10:19;;;;;;;96.43;31.73;;;;;;;-144.47;98.82;64791.97;4951795;28;20042;-67
2022/12/17 19:12:45;;;;;;;84.07;32.40;;;;;;;-144.47;99.15;64845.81;4956100;28;20038;-66
2022/12/17 19:15:10;;;;;;;88.53;31.13;;;;;;;-144.47;99.10;64847.78;4951300;28;20041;-67
2022/12/17 19:17:35;;;;;;;91.95;31.65;;;;;;;-144.47;99.19;64815.91;4950390;28;20055;-66
2022/12/17 19:20:01;;;;;;;67.88;28.73;;;;;;;-144.47;99.15;64883.66;4961735;28;20030;-68
2022/12/17 19:22:26;;;;;;;77.65;31.05;;;;;;;-144.47;99.20;64899.63;4955808;28;20031;-68
2022/12/17 19:24:52;;;;;;;86.63;34.03;;;;;;;-144.47;99.34;64933.50;4970548;28;20049;-65
2022/12/17 19:27:17;;;;;;;93.90;33.90;;;;;;;-144.47;99.36;64933.50;4951775;28;20023;-66
2022/12/17 19:29:42;;;;;;;98.90;33.88;;;;;;;-144.47;99.13;64919.56;4950701;28;20050;-67
2022/12/17 19:32:08;;;;;;;83.95;31.48;;;;;;;-144.47;99.10;64945.47;4950139;28;20390;-67
2022/12/17 19:34:34;;;;;;;86.43;31.80;;;;;;;-144.47;99.45;65005.25;4950423;28;20031;-66
2022/12/17 19:36:59;;;;;;;97.20;34.20;;;;;;;-144.47;99.44;64983.34;4951182;28;20031;-68
2022/12/17 19:39:24;;;;;;;79.22;31.95;;;;;;;-144.47;99.20;64979.34;4950096;28;20350;-69
2022/12/17 19:41:50;;;;;;;88.70;33.50;;;;;;;-144.47;99.21;65007.25;4958713;28;20442;-66
2022/12/17 19:44:16;;;;;;;76.38;28.90;;;;;;;-144.47;99.33;65031.16;4952043;28;20038;-69
2022/12/17 19:46:42;;;;;;;88.82;31.10;;;;;;;-144.47;99.22;65108.91;4948014;28;20019;-72
2022/12/17 19:49:10;;;;;;;107.78;34.83;;;;;;;-144.47;99.26;65045.13;4950993;28;20503;-66
2022/12/17 19:51:37;;;;;;;99.07;34.72;;;;;;;-144.47;99.15;65104.94;4952137;28;20043;-67
2022/12/17 19:54:03;;;;;;;77.40;30.17;;;;;;;-144.47;99.29;65148.78;4950719;28;20031;-66
2022/12/17 19:56:30;;;;;;;93.07;33.70;;;;;;;-144.47;99.05;65152.75;4951898;28;20074;-67
2022/12/17 19:58:59;;;;;;;80.30;28.83;;;;;;;-144.47;99.22;65114.88;4952755;28;20023;-68
2022/12/17 20:01:30;;;;;;;72.32;32.03;;;;;;;-144.47;99.13;65188.66;4951100;28;20027;-68
2022/12/17 20:03:56;;;;;;;86.88;34.47;;;;;;;-144.47;99.10;65210.56;4953339;28;20248;-68
2022/12/17 20:06:24;;;;;;;95.10;34.97;;;;;;;-144.47;99.28;65230.50;4954663;28;20677;-67
2022/12/17 20:08:49;;;;;;;87.40;32.97;;;;;;;-144.47;99.39;65212.56;4948872;28;20484;-68
2022/12/17 20:11:34;;;;;;;97.30;33.58;;;;;;;-144.47;99.42;65246.44;4951763;28;20023;-69
2022/12/17 20:14:08;;;;;;;94.80;30.60;;;;;;;-144.47;99.03;65260.41;4956279;28;20090;-67
2022/12/17 20:16:37;;;;;;;94.55;32.28;;;;;;;-144.47;99.13;65304.25;4951825;28;20032;-68
2022/12/17 20:19:05;;;;;;;89.80;32.03;;;;;;;-144.47;99.00;65302.28;4951841;28;20377;-67
2022/12/17 20:21:30;;;;;;;88.75;32.40;;;;;;;-144.47;98.55;65296.28;4955568;28;20046;-67
2022/12/17 20:23:56;;;;;;;91.55;32.88;;;;;;;-144.47;98.73;65278.34;4956982;28;20031;-65
2022/12/17 20:26:22;;;;;;;102.90;32.17;;;;;;;-144.47;98.60;65330.19;4950755;28;20063;-65
2022/12/17 20:28:48;;;;;;;85.20;33.88;;;;;;;-144.47;98.79;65328.19;4952646;28;20031;-65
2022/12/17 20:31:13;;;;;;;84.25;33.67;;;;;;;-144.47;98.67;65348.13;4952832;28;20035;-69
2022/12/17 20:33:39;;;;;;;93.03;36.40;;;;;;;-144.47;98.51;65340.16;4952217;28;20069;-67
2022/12/17 20:36:07;;;;;;;89.72;36.42;;;;;;;-144.47;98.33;65358.09;4948084;28;20046;-67
2022/12/17 20:38:33;;;;;;;96.57;31.98;;;;;;;-144.47;98.72;65419.88;4948942;28;20141;-69
2022/12/17 20:40:58;;;;;;;84.65;31.00;;;;;;;-144.47;98.93;65455.78;4950013;28;20037;-66
2022/12/17 20:43:24;;;;;;;86.95;32.83;;;;;;;-144.47;98.50;65425.88;4949206;28;20441;-67
2022/12/17 20:45:50;;;;;;;70.72;25.90;;;;;;;-144.47;98.68;65417.88;4950090;28;20039;-67
2022/12/17 20:48:17;;;;;;;71.25;25.40;;;;;;;-144.47;98.73;65463.75;4949148;28;20475;-66
2022/12/17 20:50:43;;;;;;;68.82;24.73;;;;;;;-144.47;98.46;65457.75;4951769;28;20039;-68
2022/12/17 20:53:09;;;;;;;70.47;27.63;;;;;;;-144.47;98.46;65443.81;4962967;28;20050;-66
2022/12/17 20:55:34;;;;;;;68.18;27.65;;;;;;;-144.47;98.62;65467.72;4951903;28;20035;-66
2022/12/17 20:57:59;;;;;;;87.30;29.65;;;;;;;-144.47;98.57;65495.63;4949721;28;20035;-69
2022/12/17 21:00:25;;;;;;;76.00;26.80;;;;;;;-144.47;98.59;65501.63;4953271;28;20055;-65
2022/12/17 21:02:50;;;;;;;65.18;26.02;;;;;;;-144.47;98.50;65501.63;4951742;28;20031;-67
2022/12/17 21:05:16;;;;;;;71.25;29.80;;;;;;;-144.47;98.49;65551.47;4950549;28;20034;-65
2022/12/17 21:07:43;;;;;;;61.63;29.15;;;;;;;-144.47;98.61;65573.38;4948950;28;20139;-65
2022/12/17 21:10:08;;;;;;;62.97;26.58;;;;;;;-144.47;98.81;65591.34;4952205;28;20027;-67
2022/12/17 21:15:19;;;;;;;61.35;25.33;;;;;;;-144.47;99.05;65706.97;4950809;28;20069;-66
2022/12/17 21:17:44;;;;;;;70.55;28.83;;;;;;;-144.47;98.92;65702.97;4950638;28;20442;-66
2022/12/17 21:20:10;;;;;;;91.22;28.55;;;;;;;-144.47;98.98;65732.88;4952851;28;20082;-65
2022/12/17 21:22:36;;;;;;;63.58;26.95;;;;;;;-144.47;99.42;65810.63;4951862;28;20378;-67
2022/12/17 21:25:01;;;;;;;60.53;25.48;;;;;;;-144.47;98.90;65730.88;4955796;28;20035;-64
2022/12/17 21:27:27;;;;;;;58.15;24.17;;;;;;;-144.47;99.10;65774.75;4951485;28;20035;-69
2022/12/17 21:29:52;;;;;;;77.15;25.13;;;;;;;-144.47;99.54;65834.56;4949959;28;20031;-68
2022/12/17 21:32:18;;;;;;;81.57;27.25;;;;;;;-144.47;99.58;65818.59;4951261;28;20027;-66
2022/12/17 21:34:43;;;;;;;73.68;25.02;;;;;;;-144.47;99.65;65890.38;4969579;28;20049;-66
2022/12/17 21:37:10;;;;;;;61.15;23.63;;;;;;;-144.47;99.80;65878.44;4954911;28;20111;-67
2022/12/17 21:39:35;;;;;;;76.07;25.85;;;;;;;-144.47;99.60;65908.34;4956979;28;20038;-65
2022/12/17 21:44:47;;;;;;;82.15;29.90;;;;;;;-144.47;99.44;65932.25;4947216;28;20089;-65
2022/12/17 21:47:13;;;;;;;70.40;26.75;;;;;;;-144.47;99.42;65936.25;4950144;28;20024;-67
2022/12/17 21:49:38;;;;;;;81.10;31.38;;;;;;;-144.47;99.60;66000.03;4957183;28;20027;-66
2022/12/17 21:52:04;;;;;;;93.35;33.90;;;;;;;-144.47;99.32;65966.16;4967999;28;20033;-72
2022/12/17 21:54:29;;;;;;;77.30;30.85;;;;;;;-144.47;99.13;65986.09;4952322;28;20035;-66
2022/12/17 21:56:55;;;;;;;79.18;30.73;;;;;;;-144.47;99.26;66008.03;4949556;28;20086;-65
2022/12/17 21:59:20;;;;;;;69.95;27.27;;;;;;;-144.47;99.33;66039.91;4950894;28;20042;-67
2022/12/17 22:01:45;;;;;;;70.38;26.27;;;;;;;-144.47;99.10;66053.88;4964096;28;20035;-65
2022/12/17 22:04:11;;;;;;;71.88;29.35;;;;;;;-144.47;99.10;66101.72;4949416;29;20027;-66
2022/12/17 22:06:37;;;;;;;59.40;25.60;;;;;;;-144.47;99.03;66101.72;4955208;28;20031;-68
2022/12/17 22:09:06;;;;;;;77.47;28.20;;;;;;;-144.47;99.06;66133.63;4943490;28;20034;-65
2022/12/17 22:11:32;;;;;;;90.78;30.92;;;;;;;-144.47;98.93;66117.69;4944246;28;20061;-64
2022/12/17 22:14:09;;;;;;;87.13;28.48;;;;;;;-144.47;98.75;66089.78;4944268;28;20070;-65
2022/12/17 22:16:45;;;;;;;71.57;29.23;;;;;;;-144.47;98.24;66065.84;4941815;28;20035;-65
2022/12/17 22:19:22;;;;;;;63.63;26.20;;;;;;;-144.47;98.16;66067.84;4942756;28;20078;-65
2022/12/17 22:21:49;;;;;;;89.10;29.00;;;;;;;-144.47;98.23;66061.84;4943569;28;20043;-65
2022/12/17 22:24:16;;;;;;;62.88;25.73;;;;;;;-144.47;98.08;66087.78;4945445;28;20042;-65
2022/12/17 22:26:42;;;;;;;61.33;25.33;;;;;;;-144.47;97.96;66125.66;4940947;28;20023;-66
2022/12/17 22:29:07;;;;;;;50.10;21.60;;;;;;;-144.47;98.03;66089.78;4944586;28;20035;-65
2022/12/17 22:34:17;;;;;;;82.47;28.15;;;;;;;-144.47;98.07;66113.69;4945048;28;20133;-67
2022/12/17 22:36:42;;;;;;;55.00;22.65;;;;;;;-144.47;97.81;66097.75;4943060;28;20788;-65
2022/12/17 22:39:11;;;;;;;61.47;23.00;;;;;;;-144.47;97.73;66137.63;4944796;28;20038;-64
2022/12/17 22:44:22;;;;;;;46.97;21.48;;;;;;;-144.47;97.42;66143.59;4944412;28;20097;-65
2022/12/17 22:46:48;;;;;;;43.35;19.33;;;;;;;-144.47;97.41;66113.69;4943484;28;20043;-64
2022/12/17 22:49:14;;;;;;;52.75;22.38;;;;;;;-144.47;97.64;66141.63;4940514;28;20034;-65
2022/12/17 22:51:40;;;;;;;42.20;19.45;;;;;;;-144.47;97.79;66175.50;4942588;28;20043;-64
2022/12/17 22:54:11;;;;;;;56.15;20.33;;;;;;;-144.47;97.45;66139.63;4942442;28;20035;-65
2022/12/17 22:56:38;;;;;;;45.40;19.10;;;;;;;-144.47;97.60;66165.53;4942413;28;20035;-66
2022/12/17 22:59:04;;;;;;;45.60;20.98;;;;;;;-144.47;97.85;66163.53;4941819;28;20035;-67
2022/12/17 23:01:30;;;;;;;39.95;18.35;;;;;;;-144.47;97.46;66143.59;4941873;28;20041;-63
2022/12/17 23:03:57;;;;;;;52.10;19.50;;;;;;;-144.47;97.36;66143.59;4939574;28;20030;-64
2022/12/17 23:06:23;;;;;;;48.55;19.40;;;;;;;-144.47;97.00;66093.75;4947048;28;20170;-64
2022/12/17 23:08:48;;;;;;;44.15;20.33;;;;;;;-144.47;97.05;66121.66;4944915;28;20627;-67
2022/12/17 23:11:16;;;;;;;42.97;17.38;;;;;;;-144.47;96.77;66077.81;4943085;28;20031;-66
2022/12/17 23:13:41;;;;;;;50.80;20.37;;;;;;;-144.47;96.51;66061.84;4948944;28;20023;-64
2022/12/17 23:16:09;;;;;;;42.08;18.05;;;;;;;-144.47;96.57;66099.75;4945761;28;20055;-64
2022/12/17 23:18:35;;;;;;;56.15;21.70;;;;;;;-144.47;96.89;66129.66;4950772;28;20027;-66
2022/12/17 23:21:10;;;;;;;41.88;18.52;;;;;;;-144.47;96.64;66133.63;4953918;28;20473;-64
2022/12/17 23:23:36;;;;;;;33.25;17.77;;;;;;;-144.47;96.59;66133.63;4954549;28;20058;-65
2022/12/17 23:26:13;;;;;;;37.55;16.10;;;;;;;-144.47;96.46;66129.66;4964034;28;20116;-65
2022/12/17 23:28:38;;;;;;;41.13;18.67;;;;;;;-144.47;96.02;66115.69;4949490;28;20031;-65
2022/12/17 23:31:09;;;;;;;36.72;17.63;;;;;;;-144.47;96.16;66081.78;4958896;28;20026;-63
2022/12/17 23:33:35;;;;;;;35.85;17.35;;;;;;;-144.47;95.90;66095.75;4952497;28;20102;-62
2022/12/17 23:36:06;;;;;;;39.45;19.23;;;;;;;-144.47;95.77;66077.81;4962385;28;20035;-63
2022/12/17 23:38:31;;;;;;;52.75;21.25;;;;;;;-144.47;95.49;66073.81;4955534;28;20038;-64
2022/12/17 23:41:09;;;;;;;69.88;25.08;;;;;;;-144.47;95.67;66085.78;4954623;28;20454;-65
2022/12/17 23:43:35;;;;;;;55.55;21.88;;;;;;;-144.47;95.45;66099.75;4958941;28;20133;-64
2022/12/17 23:46:00;;;;;;;37.38;17.77;;;;;;;-144.47;95.29;66097.75;4974081;28;20110;-63
2022/12/17 23:48:34;;;;;;;48.63;18.55;;;;;;;-144.47;95.20;66006.03;4964749;28;20193;-64
2022/12/17 23:51:00;;;;;;;41.33;20.20;;;;;;;-144.47;95.20;66077.81;4954002;28;20046;-65
2022/12/17 23:53:27;;;;;;;39.67;18.13;;;;;;;-144.47;95.38;66081.78;4953918;28;20034;-64
2022/12/17 23:55:53;;;;;;;44.65;21.02;;;;;;;-144.47;95.21;66077.81;4966872;28;20034;-64
2022/12/17 23:58:19;;;;;;;51.95;22.95;;;;;;;-144.47;94.96;66063.84;4951888;28;20031;-61
